sensor_id;sensor_type;location;lat;lon;timestamp;P1;durP1;ratioP1;P2;durP2;ratioP2
15354;SDS011;7777;52.254;9.618;2024-03-08T00:00:00;27.37;;;16.77;;
15354;SDS011;7777;52.254;9.618;2024-03-08T00:02:37;27.93;;;17.93;;
15354;SDS011;7777;52.254;9.618;2024-03-08T00:05:05;24.67;;;17.33;;
15354;SDS011;7777;52.254;9.618;2024-03-08T00:07:31;28.03;;;16.90;;
15354;SDS011;7777;52.254;9.618;2024-03-08T00:09:57;26.20;;;16.70;;
15354;SDS011;7777;52.254;9.618;2024-03-08T00:12:23;26.00;;;16.13;;
15354;SDS011;7777;52.254;9.618;2024-03-08T00:14:49;28.77;;;17.70;;
15354;SDS011;7777;52.254;9.618;2024-03-08T00:17:15;28.73;;;17.73;;
15354;SDS011;7777;52.254;9.618;2024-03-08T00:19:41;34.57;;;16.77;;
15354;SDS011;7777;52.254;9.618;2024-03-08T00:22:07;29.37;;;18.00;;
15354;SDS011;7777;52.254;9.618;2024-03-08T00:24:33;26.50;;;17.00;;
15354;SDS011;7777;52.254;9.618;2024-03-08T00:26:58;28.00;;;16.80;;
15354;SDS011;7777;52.254;9.618;2024-03-08T00:29:24;26.40;;;17.33;;
15354;SDS011;7777;52.254;9.618;2024-03-08T00:31:50;24.97;;;15.90;;
15354;SDS011;7777;52.254;9.618;2024-03-08T00:34:16;26.77;;;17.07;;
15354;SDS011;7777;52.254;9.618;2024-03-08T00:36:42;25.60;;;17.17;;
15354;SDS011;7777;52.254;9.618;2024-03-08T00:39:09;27.43;;;17.53;;
15354;SDS011;7777;52.254;9.618;2024-03-08T00:41:34;33.57;;;18.13;;
15354;SDS011;7777;52.254;9.618;2024-03-08T00:44:00;30.53;;;17.53;;
15354;SDS011;7777;52.254;9.618;2024-03-08T00:46:25;28.53;;;17.07;;
15354;SDS011;7777;52.254;9.618;2024-03-08T00:48:53;28.80;;;17.53;;
15354;SDS011;7777;52.254;9.618;2024-03-08T00:51:20;29.13;;;17.37;;
15354;SDS011;7777;52.254;9.618;2024-03-08T00:53:46;26.70;;;17.03;;
15354;SDS011;7777;52.254;9.618;2024-03-08T00:56:12;27.10;;;16.83;;
15354;SDS011;7777;52.254;9.618;2024-03-08T00:58:37;25.70;;;16.93;;
15354;SDS011;7777;52.254;9.618;2024-03-08T01:01:03;24.60;;;16.60;;
15354;SDS011;7777;52.254;9.618;2024-03-08T01:03:30;27.33;;;17.90;;
15354;SDS011;7777;52.254;9.618;2024-03-08T01:05:57;29.67;;;17.13;;
15354;SDS011;7777;52.254;9.618;2024-03-08T01:08:22;29.97;;;17.67;;
15354;SDS011;7777;52.254;9.618;2024-03-08T01:10:48;30.47;;;17.53;;
15354;SDS011;7777;52.254;9.618;2024-03-08T01:13:17;27.83;;;17.33;;
15354;SDS011;7777;52.254;9.618;2024-03-08T01:15:44;28.30;;;17.30;;
15354;SDS011;7777;52.254;9.618;2024-03-08T01:18:10;31.00;;;18.03;;
15354;SDS011;7777;52.254;9.618;2024-03-08T01:20:36;29.93;;;17.23;;
15354;SDS011;7777;52.254;9.618;2024-03-08T01:23:02;26.50;;;16.90;;
15354;SDS011;7777;52.254;9.618;2024-03-08T01:25:32;27.63;;;17.50;;
15354;SDS011;7777;52.254;9.618;2024-03-08T01:27:59;30.00;;;17.00;;
15354;SDS011;7777;52.254;9.618;2024-03-08T01:30:24;26.97;;;17.17;;
15354;SDS011;7777;52.254;9.618;2024-03-08T01:32:50;33.60;;;18.50;;
15354;SDS011;7777;52.254;9.618;2024-03-08T01:35:16;30.97;;;17.80;;
15354;SDS011;7777;52.254;9.618;2024-03-08T01:37:43;29.00;;;18.27;;
15354;SDS011;7777;52.254;9.618;2024-03-08T01:40:09;31.17;;;18.00;;
15354;SDS011;7777;52.254;9.618;2024-03-08T01:42:35;29.17;;;18.07;;
15354;SDS011;7777;52.254;9.618;2024-03-08T01:45:03;37.47;;;19.83;;
15354;SDS011;7777;52.254;9.618;2024-03-08T01:47:34;28.43;;;17.63;;
15354;SDS011;7777;52.254;9.618;2024-03-08T01:50:00;35.73;;;18.37;;
15354;SDS011;7777;52.254;9.618;2024-03-08T01:52:28;37.50;;;18.63;;
15354;SDS011;7777;52.254;9.618;2024-03-08T01:54:56;33.23;;;18.63;;
15354;SDS011;7777;52.254;9.618;2024-03-08T01:57:26;26.17;;;17.73;;
15354;SDS011;7777;52.254;9.618;2024-03-08T01:59:58;27.77;;;18.10;;
15354;SDS011;7777;52.254;9.618;2024-03-08T02:02:27;28.97;;;18.67;;
15354;SDS011;7777;52.254;9.618;2024-03-08T02:04:53;30.40;;;18.27;;
15354;SDS011;7777;52.254;9.618;2024-03-08T02:07:19;31.40;;;18.73;;
15354;SDS011;7777;52.254;9.618;2024-03-08T02:09:46;29.77;;;17.80;;
15354;SDS011;7777;52.254;9.618;2024-03-08T02:12:11;33.20;;;19.77;;
15354;SDS011;7777;52.254;9.618;2024-03-08T02:14:37;31.47;;;18.80;;
15354;SDS011;7777;52.254;9.618;2024-03-08T02:17:04;31.10;;;18.90;;
15354;SDS011;7777;52.254;9.618;2024-03-08T02:19:30;29.87;;;18.57;;
15354;SDS011;7777;52.254;9.618;2024-03-08T02:21:57;28.27;;;18.03;;
15354;SDS011;7777;52.254;9.618;2024-03-08T02:24:24;29.73;;;18.50;;
15354;SDS011;7777;52.254;9.618;2024-03-08T02:26:50;32.87;;;20.00;;
15354;SDS011;7777;52.254;9.618;2024-03-08T02:29:16;30.63;;;19.33;;
15354;SDS011;7777;52.254;9.618;2024-03-08T02:31:42;27.60;;;17.70;;
15354;SDS011;7777;52.254;9.618;2024-03-08T02:34:08;29.37;;;19.43;;
15354;SDS011;7777;52.254;9.618;2024-03-08T02:36:34;30.37;;;19.23;;
15354;SDS011;7777;52.254;9.618;2024-03-08T02:39:03;29.53;;;19.10;;
15354;SDS011;7777;52.254;9.618;2024-03-08T02:41:30;28.50;;;18.60;;
15354;SDS011;7777;52.254;9.618;2024-03-08T02:43:56;30.37;;;18.70;;
15354;SDS011;7777;52.254;9.618;2024-03-08T02:46:21;31.50;;;19.60;;
15354;SDS011;7777;52.254;9.618;2024-03-08T02:48:47;30.10;;;18.63;;
15354;SDS011;7777;52.254;9.618;2024-03-08T02:51:13;31.60;;;19.50;;
15354;SDS011;7777;52.254;9.618;2024-03-08T02:53:41;34.80;;;18.43;;
15354;SDS011;7777;52.254;9.618;2024-03-08T02:56:08;34.23;;;19.00;;
15354;SDS011;7777;52.254;9.618;2024-03-08T02:58:37;31.07;;;18.27;;
15354;SDS011;7777;52.254;9.618;2024-03-08T03:01:03;32.30;;;19.17;;
15354;SDS011;7777;52.254;9.618;2024-03-08T03:03:29;30.87;;;20.53;;
15354;SDS011;7777;52.254;9.618;2024-03-08T03:05:55;33.03;;;18.87;;
15354;SDS011;7777;52.254;9.618;2024-03-08T03:08:21;32.33;;;19.70;;
15354;SDS011;7777;52.254;9.618;2024-03-08T03:10:46;33.43;;;19.17;;
15354;SDS011;7777;52.254;9.618;2024-03-08T03:13:12;32.70;;;18.57;;
15354;SDS011;7777;52.254;9.618;2024-03-08T03:15:39;29.73;;;18.57;;
15354;SDS011;7777;52.254;9.618;2024-03-08T03:18:08;33.73;;;19.47;;
15354;SDS011;7777;52.254;9.618;2024-03-08T03:20:33;32.00;;;18.30;;
15354;SDS011;7777;52.254;9.618;2024-03-08T03:23:05;31.93;;;18.43;;
15354;SDS011;7777;52.254;9.618;2024-03-08T03:25:33;28.97;;;18.37;;
15354;SDS011;7777;52.254;9.618;2024-03-08T03:28:01;31.27;;;18.90;;
15354;SDS011;7777;52.254;9.618;2024-03-08T03:30:27;30.87;;;18.27;;
15354;SDS011;7777;52.254;9.618;2024-03-08T03:32:58;31.60;;;18.47;;
15354;SDS011;7777;52.254;9.618;2024-03-08T03:35:31;37.20;;;19.60;;
15354;SDS011;7777;52.254;9.618;2024-03-08T03:37:57;35.83;;;19.97;;
15354;SDS011;7777;52.254;9.618;2024-03-08T03:40:38;28.73;;;17.73;;
15354;SDS011;7777;52.254;9.618;2024-03-08T03:43:06;35.63;;;19.10;;
15354;SDS011;7777;52.254;9.618;2024-03-08T03:45:32;33.03;;;19.73;;
15354;SDS011;7777;52.254;9.618;2024-03-08T03:48:00;28.63;;;18.73;;
15354;SDS011;7777;52.254;9.618;2024-03-08T03:50:34;33.13;;;19.70;;
15354;SDS011;7777;52.254;9.618;2024-03-08T03:53:00;31.53;;;19.57;;
15354;SDS011;7777;52.254;9.618;2024-03-08T03:55:27;35.23;;;18.47;;
15354;SDS011;7777;52.254;9.618;2024-03-08T03:57:53;31.73;;;19.77;;
15354;SDS011;7777;52.254;9.618;2024-03-08T04:00:19;33.90;;;19.67;;
15354;SDS011;7777;52.254;9.618;2024-03-08T04:02:45;30.17;;;18.73;;
15354;SDS011;7777;52.254;9.618;2024-03-08T04:05:16;28.57;;;18.40;;
15354;SDS011;7777;52.254;9.618;2024-03-08T04:07:41;29.47;;;18.53;;
15354;SDS011;7777;52.254;9.618;2024-03-08T04:10:09;31.90;;;18.63;;
15354;SDS011;7777;52.254;9.618;2024-03-08T04:12:37;28.70;;;18.00;;
15354;SDS011;7777;52.254;9.618;2024-03-08T04:15:03;30.60;;;18.33;;
15354;SDS011;7777;52.254;9.618;2024-03-08T04:17:32;30.50;;;17.80;;
15354;SDS011;7777;52.254;9.618;2024-03-08T04:20:05;33.23;;;19.67;;
15354;SDS011;7777;52.254;9.618;2024-03-08T04:22:36;32.07;;;17.53;;
15354;SDS011;7777;52.254;9.618;2024-03-08T04:25:02;31.17;;;18.57;;
15354;SDS011;7777;52.254;9.618;2024-03-08T04:27:28;32.90;;;18.00;;
15354;SDS011;7777;52.254;9.618;2024-03-08T04:29:54;34.63;;;19.87;;
15354;SDS011;7777;52.254;9.618;2024-03-08T04:32:20;30.40;;;18.53;;
15354;SDS011;7777;52.254;9.618;2024-03-08T04:34:45;33.33;;;21.00;;
15354;SDS011;7777;52.254;9.618;2024-03-08T04:37:11;31.30;;;18.43;;
15354;SDS011;7777;52.254;9.618;2024-03-08T04:39:39;29.00;;;18.57;;
15354;SDS011;7777;52.254;9.618;2024-03-08T04:42:04;31.93;;;19.30;;
15354;SDS011;7777;52.254;9.618;2024-03-08T04:44:35;34.77;;;19.60;;
15354;SDS011;7777;52.254;9.618;2024-03-08T04:47:04;30.50;;;19.50;;
15354;SDS011;7777;52.254;9.618;2024-03-08T04:49:33;30.77;;;19.70;;
15354;SDS011;7777;52.254;9.618;2024-03-08T04:52:00;37.23;;;19.97;;
15354;SDS011;7777;52.254;9.618;2024-03-08T04:54:29;39.53;;;20.43;;
15354;SDS011;7777;52.254;9.618;2024-03-08T04:56:55;33.53;;;19.87;;
15354;SDS011;7777;52.254;9.618;2024-03-08T04:59:21;30.60;;;18.83;;
15354;SDS011;7777;52.254;9.618;2024-03-08T05:01:47;30.00;;;18.67;;
15354;SDS011;7777;52.254;9.618;2024-03-08T05:04:13;35.47;;;19.17;;
15354;SDS011;7777;52.254;9.618;2024-03-08T05:06:40;36.80;;;18.97;;
15354;SDS011;7777;52.254;9.618;2024-03-08T05:09:06;32.67;;;20.27;;
15354;SDS011;7777;52.254;9.618;2024-03-08T05:11:44;33.03;;;19.03;;
15354;SDS011;7777;52.254;9.618;2024-03-08T05:14:12;32.00;;;17.87;;
15354;SDS011;7777;52.254;9.618;2024-03-08T05:16:42;30.23;;;18.57;;
15354;SDS011;7777;52.254;9.618;2024-03-08T05:19:17;31.30;;;19.83;;
15354;SDS011;7777;52.254;9.618;2024-03-08T05:21:47;29.97;;;18.80;;
15354;SDS011;7777;52.254;9.618;2024-03-08T05:24:14;31.70;;;18.90;;
15354;SDS011;7777;52.254;9.618;2024-03-08T05:26:41;28.80;;;17.70;;
15354;SDS011;7777;52.254;9.618;2024-03-08T05:29:07;34.90;;;19.87;;
15354;SDS011;7777;52.254;9.618;2024-03-08T05:31:48;32.50;;;19.53;;
15354;SDS011;7777;52.254;9.618;2024-03-08T05:34:15;35.70;;;18.63;;
15354;SDS011;7777;52.254;9.618;2024-03-08T05:36:42;33.73;;;19.10;;
15354;SDS011;7777;52.254;9.618;2024-03-08T05:39:09;30.47;;;18.23;;
15354;SDS011;7777;52.254;9.618;2024-03-08T05:41:37;31.03;;;17.67;;
15354;SDS011;7777;52.254;9.618;2024-03-08T05:44:05;34.03;;;20.17;;
15354;SDS011;7777;52.254;9.618;2024-03-08T05:46:31;33.33;;;19.63;;
15354;SDS011;7777;52.254;9.618;2024-03-08T05:48:56;33.10;;;19.97;;
15354;SDS011;7777;52.254;9.618;2024-03-08T05:51:24;31.83;;;20.13;;
15354;SDS011;7777;52.254;9.618;2024-03-08T05:53:52;36.50;;;21.27;;
15354;SDS011;7777;52.254;9.618;2024-03-08T05:56:18;32.10;;;19.13;;
15354;SDS011;7777;52.254;9.618;2024-03-08T05:58:45;38.63;;;20.90;;
15354;SDS011;7777;52.254;9.618;2024-03-08T06:01:11;32.00;;;19.60;;
15354;SDS011;7777;52.254;9.618;2024-03-08T06:03:38;34.53;;;21.10;;
15354;SDS011;7777;52.254;9.618;2024-03-08T06:06:13;35.90;;;21.77;;
15354;SDS011;7777;52.254;9.618;2024-03-08T06:08:39;34.53;;;19.70;;
15354;SDS011;7777;52.254;9.618;2024-03-08T06:11:05;35.57;;;20.17;;
15354;SDS011;7777;52.254;9.618;2024-03-08T06:13:34;34.83;;;20.07;;
15354;SDS011;7777;52.254;9.618;2024-03-08T06:16:03;36.17;;;21.03;;
15354;SDS011;7777;52.254;9.618;2024-03-08T06:18:30;39.43;;;23.17;;
15354;SDS011;7777;52.254;9.618;2024-03-08T06:20:56;34.07;;;20.70;;
15354;SDS011;7777;52.254;9.618;2024-03-08T06:23:22;34.77;;;21.33;;
15354;SDS011;7777;52.254;9.618;2024-03-08T06:25:48;37.97;;;22.77;;
15354;SDS011;7777;52.254;9.618;2024-03-08T06:28:15;42.97;;;24.07;;
15354;SDS011;7777;52.254;9.618;2024-03-08T06:30:41;39.13;;;23.30;;
15354;SDS011;7777;52.254;9.618;2024-03-08T06:33:08;42.63;;;24.00;;
15354;SDS011;7777;52.254;9.618;2024-03-08T06:35:33;40.43;;;24.30;;
15354;SDS011;7777;52.254;9.618;2024-03-08T06:38:02;43.27;;;24.63;;
15354;SDS011;7777;52.254;9.618;2024-03-08T06:40:29;39.20;;;22.73;;
15354;SDS011;7777;52.254;9.618;2024-03-08T06:42:55;37.23;;;22.80;;
15354;SDS011;7777;52.254;9.618;2024-03-08T06:45:21;37.83;;;22.73;;
15354;SDS011;7777;52.254;9.618;2024-03-08T06:47:48;40.70;;;24.63;;
15354;SDS011;7777;52.254;9.618;2024-03-08T06:50:14;38.40;;;23.53;;
15354;SDS011;7777;52.254;9.618;2024-03-08T06:52:40;39.13;;;22.63;;
15354;SDS011;7777;52.254;9.618;2024-03-08T06:55:11;37.10;;;23.13;;
15354;SDS011;7777;52.254;9.618;2024-03-08T06:57:38;40.93;;;21.00;;
15354;SDS011;7777;52.254;9.618;2024-03-08T07:00:06;37.87;;;23.07;;
15354;SDS011;7777;52.254;9.618;2024-03-08T07:02:38;38.83;;;24.33;;
15354;SDS011;7777;52.254;9.618;2024-03-08T07:05:07;45.67;;;26.27;;
15354;SDS011;7777;52.254;9.618;2024-03-08T07:07:35;36.43;;;23.83;;
15354;SDS011;7777;52.254;9.618;2024-03-08T07:10:02;44.43;;;25.63;;
15354;SDS011;7777;52.254;9.618;2024-03-08T07:12:28;39.37;;;25.13;;
15354;SDS011;7777;52.254;9.618;2024-03-08T07:14:54;42.03;;;24.97;;
15354;SDS011;7777;52.254;9.618;2024-03-08T07:17:19;42.37;;;26.33;;
15354;SDS011;7777;52.254;9.618;2024-03-08T07:19:46;43.37;;;27.87;;
15354;SDS011;7777;52.254;9.618;2024-03-08T07:22:12;43.00;;;26.30;;
15354;SDS011;7777;52.254;9.618;2024-03-08T07:24:37;41.23;;;25.20;;
15354;SDS011;7777;52.254;9.618;2024-03-08T07:27:35;42.40;;;26.63;;
15354;SDS011;7777;52.254;9.618;2024-03-08T07:30:02;46.70;;;28.30;;
15354;SDS011;7777;52.254;9.618;2024-03-08T07:32:28;44.33;;;25.50;;
15354;SDS011;7777;52.254;9.618;2024-03-08T07:34:59;42.17;;;26.40;;
15354;SDS011;7777;52.254;9.618;2024-03-08T07:37:25;39.50;;;25.17;;
15354;SDS011;7777;52.254;9.618;2024-03-08T07:39:51;39.53;;;25.63;;
15354;SDS011;7777;52.254;9.618;2024-03-08T07:42:16;43.23;;;27.07;;
15354;SDS011;7777;52.254;9.618;2024-03-08T07:44:42;44.13;;;26.63;;
15354;SDS011;7777;52.254;9.618;2024-03-08T07:47:08;39.37;;;25.77;;
15354;SDS011;7777;52.254;9.618;2024-03-08T07:49:37;37.50;;;24.60;;
15354;SDS011;7777;52.254;9.618;2024-03-08T07:52:03;43.90;;;26.07;;
15354;SDS011;7777;52.254;9.618;2024-03-08T07:54:30;43.00;;;25.53;;
15354;SDS011;7777;52.254;9.618;2024-03-08T07:56:56;43.80;;;26.80;;
15354;SDS011;7777;52.254;9.618;2024-03-08T07:59:22;47.53;;;25.43;;
15354;SDS011;7777;52.254;9.618;2024-03-08T08:01:47;36.63;;;24.87;;
15354;SDS011;7777;52.254;9.618;2024-03-08T08:04:14;47.20;;;25.67;;
15354;SDS011;7777;52.254;9.618;2024-03-08T08:06:42;44.90;;;26.23;;
15354;SDS011;7777;52.254;9.618;2024-03-08T08:09:09;40.60;;;24.83;;
15354;SDS011;7777;52.254;9.618;2024-03-08T08:11:40;35.03;;;23.77;;
15354;SDS011;7777;52.254;9.618;2024-03-08T08:14:08;37.80;;;24.90;;
15354;SDS011;7777;52.254;9.618;2024-03-08T08:16:37;39.60;;;25.20;;
15354;SDS011;7777;52.254;9.618;2024-03-08T08:19:03;37.73;;;23.67;;
15354;SDS011;7777;52.254;9.618;2024-03-08T08:21:35;40.27;;;26.53;;
15354;SDS011;7777;52.254;9.618;2024-03-08T08:24:02;41.07;;;25.47;;
15354;SDS011;7777;52.254;9.618;2024-03-08T08:26:29;39.27;;;24.60;;
15354;SDS011;7777;52.254;9.618;2024-03-08T08:28:56;37.27;;;25.40;;
15354;SDS011;7777;52.254;9.618;2024-03-08T08:31:22;47.40;;;25.23;;
15354;SDS011;7777;52.254;9.618;2024-03-08T08:33:48;38.40;;;24.33;;
15354;SDS011;7777;52.254;9.618;2024-03-08T08:36:14;39.53;;;26.00;;
15354;SDS011;7777;52.254;9.618;2024-03-08T08:38:40;43.40;;;25.03;;
15354;SDS011;7777;52.254;9.618;2024-03-08T08:41:10;41.20;;;25.40;;
15354;SDS011;7777;52.254;9.618;2024-03-08T08:43:36;40.20;;;24.87;;
15354;SDS011;7777;52.254;9.618;2024-03-08T08:46:04;39.27;;;24.80;;
15354;SDS011;7777;52.254;9.618;2024-03-08T08:48:30;38.17;;;25.50;;
15354;SDS011;7777;52.254;9.618;2024-03-08T08:50:57;40.20;;;25.37;;
15354;SDS011;7777;52.254;9.618;2024-03-08T08:53:22;37.60;;;24.47;;
15354;SDS011;7777;52.254;9.618;2024-03-08T08:55:48;38.13;;;24.90;;
15354;SDS011;7777;52.254;9.618;2024-03-08T08:58:14;41.87;;;25.70;;
15354;SDS011;7777;52.254;9.618;2024-03-08T09:00:40;36.93;;;23.47;;
15354;SDS011;7777;52.254;9.618;2024-03-08T09:03:07;37.03;;;24.67;;
15354;SDS011;7777;52.254;9.618;2024-03-08T09:05:32;39.20;;;25.23;;
15354;SDS011;7777;52.254;9.618;2024-03-08T09:07:59;41.17;;;26.47;;
15354;SDS011;7777;52.254;9.618;2024-03-08T09:10:25;45.30;;;26.53;;
15354;SDS011;7777;52.254;9.618;2024-03-08T09:12:52;42.37;;;25.20;;
15354;SDS011;7777;52.254;9.618;2024-03-08T09:15:18;37.00;;;23.50;;
15354;SDS011;7777;52.254;9.618;2024-03-08T09:17:45;43.77;;;27.00;;
15354;SDS011;7777;52.254;9.618;2024-03-08T09:20:13;36.93;;;24.57;;
15354;SDS011;7777;52.254;9.618;2024-03-08T09:22:40;40.90;;;25.30;;
15354;SDS011;7777;52.254;9.618;2024-03-08T09:25:09;33.57;;;23.93;;
15354;SDS011;7777;52.254;9.618;2024-03-08T09:27:35;41.70;;;24.40;;
15354;SDS011;7777;52.254;9.618;2024-03-08T09:30:00;40.10;;;24.77;;
15354;SDS011;7777;52.254;9.618;2024-03-08T09:32:26;38.07;;;24.93;;
15354;SDS011;7777;52.254;9.618;2024-03-08T09:34:52;46.23;;;23.80;;
15354;SDS011;7777;52.254;9.618;2024-03-08T09:37:20;34.63;;;23.77;;
15354;SDS011;7777;52.254;9.618;2024-03-08T09:39:46;37.03;;;23.80;;
15354;SDS011;7777;52.254;9.618;2024-03-08T09:42:12;37.37;;;23.70;;
15354;SDS011;7777;52.254;9.618;2024-03-08T09:44:39;33.10;;;21.80;;
15354;SDS011;7777;52.254;9.618;2024-03-08T09:47:14;33.07;;;23.13;;
15354;SDS011;7777;52.254;9.618;2024-03-08T09:49:41;39.90;;;23.77;;
15354;SDS011;7777;52.254;9.618;2024-03-08T09:52:08;38.43;;;23.87;;
15354;SDS011;7777;52.254;9.618;2024-03-08T09:54:35;32.80;;;22.40;;
15354;SDS011;7777;52.254;9.618;2024-03-08T09:57:03;36.50;;;22.87;;
15354;SDS011;7777;52.254;9.618;2024-03-08T09:59:29;31.73;;;22.30;;
15354;SDS011;7777;52.254;9.618;2024-03-08T10:02:01;37.17;;;24.03;;
15354;SDS011;7777;52.254;9.618;2024-03-08T10:04:28;31.50;;;21.70;;
15354;SDS011;7777;52.254;9.618;2024-03-08T10:06:55;32.47;;;23.23;;
15354;SDS011;7777;52.254;9.618;2024-03-08T10:09:25;33.97;;;23.13;;
15354;SDS011;7777;52.254;9.618;2024-03-08T10:11:56;33.00;;;23.20;;
15354;SDS011;7777;52.254;9.618;2024-03-08T10:14:25;33.80;;;23.37;;
15354;SDS011;7777;52.254;9.618;2024-03-08T10:16:54;36.93;;;21.83;;
15354;SDS011;7777;52.254;9.618;2024-03-08T10:19:24;32.63;;;22.47;;
15354;SDS011;7777;52.254;9.618;2024-03-08T10:21:51;31.53;;;22.10;;
15354;SDS011;7777;52.254;9.618;2024-03-08T10:24:22;33.10;;;21.17;;
15354;SDS011;7777;52.254;9.618;2024-03-08T10:26:51;30.57;;;22.07;;
15354;SDS011;7777;52.254;9.618;2024-03-08T10:29:30;33.13;;;21.70;;
15354;SDS011;7777;52.254;9.618;2024-03-08T10:31:57;30.40;;;21.30;;
15354;SDS011;7777;52.254;9.618;2024-03-08T10:34:24;32.70;;;21.13;;
15354;SDS011;7777;52.254;9.618;2024-03-08T10:36:51;34.23;;;23.27;;
15354;SDS011;7777;52.254;9.618;2024-03-08T10:39:23;29.93;;;21.70;;
15354;SDS011;7777;52.254;9.618;2024-03-08T10:41:56;31.20;;;21.27;;
15354;SDS011;7777;52.254;9.618;2024-03-08T10:47:12;32.70;;;21.63;;
15354;SDS011;7777;52.254;9.618;2024-03-08T10:49:50;33.53;;;22.30;;
15354;SDS011;7777;52.254;9.618;2024-03-08T10:52:20;31.57;;;21.40;;
15354;SDS011;7777;52.254;9.618;2024-03-08T10:54:47;29.93;;;20.50;;
15354;SDS011;7777;52.254;9.618;2024-03-08T10:57:14;31.43;;;21.37;;
15354;SDS011;7777;52.254;9.618;2024-03-08T10:59:48;28.97;;;21.53;;
15354;SDS011;7777;52.254;9.618;2024-03-08T11:02:14;29.53;;;19.90;;
15354;SDS011;7777;52.254;9.618;2024-03-08T11:04:49;31.13;;;21.20;;
15354;SDS011;7777;52.254;9.618;2024-03-08T11:07:16;36.13;;;21.83;;
15354;SDS011;7777;52.254;9.618;2024-03-08T11:09:43;33.93;;;21.30;;
15354;SDS011;7777;52.254;9.618;2024-03-08T11:12:22;29.10;;;22.13;;
15354;SDS011;7777;52.254;9.618;2024-03-08T11:14:59;31.10;;;22.77;;
15354;SDS011;7777;52.254;9.618;2024-03-08T11:19:58;31.73;;;21.30;;
15354;SDS011;7777;52.254;9.618;2024-03-08T11:22:29;33.93;;;21.17;;
15354;SDS011;7777;52.254;9.618;2024-03-08T11:24:59;33.53;;;23.03;;
15354;SDS011;7777;52.254;9.618;2024-03-08T11:27:33;28.73;;;19.53;;
15354;SDS011;7777;52.254;9.618;2024-03-08T11:30:03;31.93;;;21.40;;
15354;SDS011;7777;52.254;9.618;2024-03-08T11:32:35;33.63;;;21.47;;
15354;SDS011;7777;52.254;9.618;2024-03-08T11:35:03;31.17;;;21.77;;
15354;SDS011;7777;52.254;9.618;2024-03-08T11:37:33;35.23;;;20.90;;
15354;SDS011;7777;52.254;9.618;2024-03-08T11:40:00;28.80;;;20.30;;
15354;SDS011;7777;52.254;9.618;2024-03-08T11:42:29;30.83;;;20.67;;
15354;SDS011;7777;52.254;9.618;2024-03-08T11:44:55;28.23;;;21.03;;
15354;SDS011;7777;52.254;9.618;2024-03-08T11:47:21;30.37;;;20.70;;
15354;SDS011;7777;52.254;9.618;2024-03-08T11:49:47;28.67;;;20.40;;
15354;SDS011;7777;52.254;9.618;2024-03-08T11:52:16;28.37;;;20.10;;
15354;SDS011;7777;52.254;9.618;2024-03-08T11:54:53;30.83;;;19.70;;
15354;SDS011;7777;52.254;9.618;2024-03-08T11:57:24;28.43;;;20.80;;
15354;SDS011;7777;52.254;9.618;2024-03-08T11:59:51;30.50;;;19.83;;
15354;SDS011;7777;52.254;9.618;2024-03-08T12:02:17;27.77;;;19.90;;
15354;SDS011;7777;52.254;9.618;2024-03-08T12:04:44;27.23;;;19.23;;
15354;SDS011;7777;52.254;9.618;2024-03-08T12:07:13;28.17;;;20.60;;
15354;SDS011;7777;52.254;9.618;2024-03-08T12:10:13;32.10;;;20.47;;
15354;SDS011;7777;52.254;9.618;2024-03-08T12:12:44;29.50;;;20.97;;
15354;SDS011;7777;52.254;9.618;2024-03-08T12:15:16;29.93;;;21.47;;
15354;SDS011;7777;52.254;9.618;2024-03-08T12:17:48;33.53;;;20.27;;
15354;SDS011;7777;52.254;9.618;2024-03-08T12:22:48;28.43;;;20.53;;
15354;SDS011;7777;52.254;9.618;2024-03-08T12:25:18;29.13;;;20.17;;
15354;SDS011;7777;52.254;9.618;2024-03-08T12:27:45;29.27;;;20.60;;
15354;SDS011;7777;52.254;9.618;2024-03-08T12:30:24;26.63;;;19.20;;
15354;SDS011;7777;52.254;9.618;2024-03-08T12:35:21;28.10;;;19.43;;
15354;SDS011;7777;52.254;9.618;2024-03-08T12:37:52;31.50;;;20.07;;
15354;SDS011;7777;52.254;9.618;2024-03-08T12:40:26;28.67;;;19.10;;
15354;SDS011;7777;52.254;9.618;2024-03-08T12:42:57;32.80;;;18.40;;
15354;SDS011;7777;52.254;9.618;2024-03-08T12:45:24;27.10;;;19.97;;
15354;SDS011;7777;52.254;9.618;2024-03-08T12:47:53;26.13;;;19.93;;
15354;SDS011;7777;52.254;9.618;2024-03-08T12:50:20;26.20;;;19.63;;
15354;SDS011;7777;52.254;9.618;2024-03-08T12:52:50;29.77;;;20.10;;
15354;SDS011;7777;52.254;9.618;2024-03-08T12:55:15;28.10;;;20.17;;
15354;SDS011;7777;52.254;9.618;2024-03-08T12:57:43;25.17;;;19.17;;
15354;SDS011;7777;52.254;9.618;2024-03-08T13:00:10;26.20;;;19.03;;
15354;SDS011;7777;52.254;9.618;2024-03-08T13:02:44;27.63;;;20.20;;
15354;SDS011;7777;52.254;9.618;2024-03-08T13:05:11;31.57;;;19.73;;
15354;SDS011;7777;52.254;9.618;2024-03-08T13:07:39;26.63;;;19.20;;
15354;SDS011;7777;52.254;9.618;2024-03-08T13:10:10;28.27;;;19.90;;
15354;SDS011;7777;52.254;9.618;2024-03-08T13:12:39;27.47;;;19.90;;
15354;SDS011;7777;52.254;9.618;2024-03-08T13:15:08;27.63;;;19.20;;
15354;SDS011;7777;52.254;9.618;2024-03-08T13:17:45;29.60;;;18.50;;
15354;SDS011;7777;52.254;9.618;2024-03-08T13:20:13;26.40;;;20.03;;
15354;SDS011;7777;52.254;9.618;2024-03-08T13:22:42;28.57;;;20.17;;
15354;SDS011;7777;52.254;9.618;2024-03-08T13:25:08;25.50;;;19.60;;
15354;SDS011;7777;52.254;9.618;2024-03-08T13:27:38;27.73;;;19.70;;
15354;SDS011;7777;52.254;9.618;2024-03-08T13:30:11;28.97;;;19.73;;
15354;SDS011;7777;52.254;9.618;2024-03-08T13:32:40;25.90;;;18.90;;
15354;SDS011;7777;52.254;9.618;2024-03-08T13:35:08;26.07;;;18.80;;
15354;SDS011;7777;52.254;9.618;2024-03-08T13:37:41;25.10;;;19.53;;
15354;SDS011;7777;52.254;9.618;2024-03-08T13:40:08;27.77;;;19.77;;
15354;SDS011;7777;52.254;9.618;2024-03-08T13:42:38;28.73;;;20.30;;
15354;SDS011;7777;52.254;9.618;2024-03-08T13:45:08;27.43;;;19.90;;
15354;SDS011;7777;52.254;9.618;2024-03-08T13:47:38;26.57;;;19.67;;
15354;SDS011;7777;52.254;9.618;2024-03-08T13:50:05;31.70;;;20.87;;
15354;SDS011;7777;52.254;9.618;2024-03-08T13:52:38;34.53;;;21.27;;
15354;SDS011;7777;52.254;9.618;2024-03-08T13:55:05;30.17;;;20.30;;
15354;SDS011;7777;52.254;9.618;2024-03-08T13:57:31;31.87;;;20.13;;
15354;SDS011;7777;52.254;9.618;2024-03-08T13:59:57;27.90;;;20.20;;
15354;SDS011;7777;52.254;9.618;2024-03-08T14:02:24;29.17;;;19.67;;
15354;SDS011;7777;52.254;9.618;2024-03-08T14:04:54;27.67;;;19.60;;
15354;SDS011;7777;52.254;9.618;2024-03-08T14:07:20;28.40;;;20.33;;
15354;SDS011;7777;52.254;9.618;2024-03-08T14:09:46;28.83;;;19.73;;
15354;SDS011;7777;52.254;9.618;2024-03-08T14:12:12;34.33;;;19.97;;
15354;SDS011;7777;52.254;9.618;2024-03-08T14:14:38;25.37;;;19.83;;
15354;SDS011;7777;52.254;9.618;2024-03-08T14:17:07;30.53;;;20.43;;
15354;SDS011;7777;52.254;9.618;2024-03-08T14:19:35;28.13;;;19.87;;
15354;SDS011;7777;52.254;9.618;2024-03-08T14:22:01;29.80;;;20.17;;
15354;SDS011;7777;52.254;9.618;2024-03-08T14:24:29;26.67;;;19.30;;
15354;SDS011;7777;52.254;9.618;2024-03-08T14:26:56;26.63;;;19.87;;
15354;SDS011;7777;52.254;9.618;2024-03-08T14:29:24;25.13;;;19.47;;
15354;SDS011;7777;52.254;9.618;2024-03-08T14:31:57;29.90;;;21.50;;
15354;SDS011;7777;52.254;9.618;2024-03-08T14:34:24;27.67;;;20.93;;
15354;SDS011;7777;52.254;9.618;2024-03-08T14:36:54;26.40;;;19.33;;
15354;SDS011;7777;52.254;9.618;2024-03-08T14:39:21;28.07;;;20.07;;
15354;SDS011;7777;52.254;9.618;2024-03-08T14:41:51;26.53;;;19.93;;
15354;SDS011;7777;52.254;9.618;2024-03-08T14:44:19;26.50;;;18.43;;
15354;SDS011;7777;52.254;9.618;2024-03-08T14:46:47;28.77;;;21.73;;